createdAt,value
2018-11-29T00:01:26.464Z,93.80
2018-11-29T00:03:55.476Z,93.80
2018-11-29T00:06:26.611Z,93.60
2018-11-29T00:08:55.740Z,93.60
2018-11-29T00:11:26.584Z,93.70
2018-11-29T00:14:00.755Z,93.70
2018-11-29T00:16:29.755Z,93.80
2018-11-29T00:18:59.165Z,94.00
2018-11-29T00:21:30.116Z,94.00
2018-11-29T00:24:00.361Z,94.10
2018-11-29T00:26:32.895Z,94.00
2018-11-29T00:29:01.848Z,94.00
2018-11-29T00:31:31.002Z,94.00
2018-11-29T00:34:00.045Z,93.90
2018-11-29T00:36:34.771Z,93.80
2018-11-29T00:39:04.604Z,93.80
2018-11-29T00:41:33.622Z,93.70
2018-11-29T00:44:06.044Z,93.60
2018-11-29T00:46:41.340Z,93.70
2018-11-29T00:49:15.073Z,93.70
2018-11-29T00:51:49.165Z,93.70
2018-11-29T00:54:21.889Z,93.70
2018-11-29T00:56:51.657Z,93.70
2018-11-29T00:59:21.759Z,93.60
2018-11-29T01:01:58.211Z,93.60
2018-11-29T01:04:32.535Z,93.70
2018-11-29T01:07:05.928Z,93.70
2018-11-29T01:09:38.165Z,93.80
2018-11-29T01:12:08.821Z,93.80
2018-11-29T01:14:41.924Z,93.90
2018-11-29T01:19:49.071Z,94.10
2018-11-29T01:22:17.987Z,93.90
2018-11-29T01:24:47.360Z,93.90
2018-11-29T01:27:17.384Z,93.80
2018-11-29T01:29:46.387Z,93.80
2018-11-29T01:32:15.275Z,93.80
2018-11-29T01:34:44.568Z,93.90
2018-11-29T01:37:13.525Z,94.00
2018-11-29T01:39:42.828Z,93.90
2018-11-29T01:42:11.652Z,93.90
2018-11-29T01:44:41.229Z,94.00
2018-11-29T01:47:10.009Z,94.00
2018-11-29T01:49:40.248Z,94.10
2018-11-29T01:52:09.254Z,94.00
2018-11-29T01:54:38.208Z,94.00
2018-11-29T01:57:07.338Z,94.10
2018-11-29T01:59:36.520Z,94.10
2018-11-29T02:02:06.112Z,94.10
2018-11-29T02:04:34.994Z,93.90
2018-11-29T02:07:03.836Z,93.90
2018-11-29T02:09:35.280Z,93.90
2018-11-29T02:12:04.724Z,94.00
2018-11-29T02:14:33.569Z,94.00
2018-11-29T02:17:02.592Z,94.10
2018-11-29T02:19:31.571Z,94.10
2018-11-29T02:22:01.763Z,94.20
2018-11-29T02:24:34.242Z,94.40
2018-11-29T02:27:03.070Z,94.40
2018-11-29T02:29:32.036Z,94.50
2018-11-29T02:32:00.996Z,94.50
2018-11-29T02:34:30.181Z,94.70
2018-11-29T02:36:58.991Z,94.60
2018-11-29T02:39:27.797Z,94.90
2018-11-29T02:41:56.675Z,94.40
2018-11-29T02:44:25.773Z,94.30
2018-11-29T02:46:54.658Z,94.30
2018-11-29T02:49:23.460Z,94.30
2018-11-29T02:51:52.543Z,94.20
2018-11-29T02:54:22.555Z,94.20
2018-11-29T02:56:51.585Z,94.30
2018-11-29T02:59:21.841Z,94.30
2018-11-29T03:01:50.969Z,94.30
2018-11-29T03:04:19.703Z,94.20
2018-11-29T03:06:48.694Z,94.20
2018-11-29T03:09:17.844Z,94.00
2018-11-29T03:11:46.833Z,94.10
2018-11-29T03:14:15.649Z,94.20
2018-11-29T03:16:44.870Z,94.00
2018-11-29T03:19:13.922Z,94.10
2018-11-29T03:21:42.959Z,94.10
2018-11-29T03:24:17.620Z,94.10
2018-11-29T03:26:46.504Z,94.10
2018-11-29T03:29:15.364Z,94.20
2018-11-29T03:31:44.175Z,94.20
2018-11-29T03:34:12.919Z,94.30
2018-11-29T03:36:41.870Z,94.10
2018-11-29T03:39:10.949Z,94.20
2018-11-29T03:41:40.196Z,94.10
2018-11-29T03:44:09.403Z,94.10
2018-11-29T03:46:38.285Z,94.50
2018-11-29T03:49:07.248Z,94.20
2018-11-29T03:51:36.251Z,94.20
2018-11-29T03:54:05.560Z,94.40
2018-11-29T03:56:34.416Z,94.30
2018-11-29T03:59:03.270Z,94.30
2018-11-29T04:01:32.248Z,94.30
2018-11-29T04:04:01.210Z,94.20
2018-11-29T04:06:38.757Z,94.20
2018-11-29T04:09:11.635Z,94.20
2018-11-29T04:11:41.015Z,94.40
2018-11-29T04:14:09.996Z,94.40
2018-11-29T04:16:39.066Z,94.30
2018-11-29T04:19:08.259Z,94.30
2018-11-29T04:21:39.236Z,94.30
2018-11-29T04:24:08.604Z,94.40
2018-11-29T04:26:37.926Z,94.40
2018-11-29T04:29:07.122Z,94.40
2018-11-29T04:31:36.318Z,94.40
2018-11-29T04:34:05.863Z,94.40
2018-11-29T04:36:36.380Z,94.40
2018-11-29T04:39:06.807Z,94.50
2018-11-29T04:41:37.664Z,94.60
2018-11-29T04:44:06.547Z,94.50
2018-11-29T04:46:45.109Z,94.50
2018-11-29T04:49:14.051Z,94.40
2018-11-29T04:51:42.849Z,94.50
2018-11-29T04:54:12.013Z,94.40
2018-11-29T04:56:40.899Z,94.30
2018-11-29T04:59:13.319Z,94.20
2018-11-29T05:01:42.326Z,94.20
2018-11-29T05:04:11.094Z,94.40
2018-11-29T05:06:39.864Z,94.60
2018-11-29T05:09:10.179Z,94.30
2018-11-29T05:11:39.281Z,94.30
2018-11-29T05:14:08.240Z,94.30
2018-11-29T05:16:37.215Z,94.50
2018-11-29T05:19:06.155Z,94.50
2018-11-29T05:21:34.927Z,94.50
2018-11-29T05:24:04.063Z,94.40
2018-11-29T05:26:32.995Z,94.40
2018-11-29T05:29:01.915Z,94.50
2018-11-29T05:31:30.941Z,94.30
2018-11-29T05:33:59.788Z,94.40
2018-11-29T05:36:30.365Z,94.30
2018-11-29T05:38:59.298Z,94.40
2018-11-29T05:41:32.256Z,94.30
2018-11-29T05:44:01.529Z,94.20
2018-11-29T05:46:30.386Z,94.20
2018-11-29T05:48:59.190Z,94.20
2018-11-29T05:51:28.006Z,94.10
2018-11-29T05:53:57.104Z,94.10
2018-11-29T05:56:25.863Z,94.00
2018-11-29T05:58:54.633Z,93.90
2018-11-29T06:01:28.869Z,94.10
2018-11-29T06:03:57.887Z,94.00
2018-11-29T06:06:26.806Z,94.10
2018-11-29T06:08:55.646Z,94.00
2018-11-29T06:11:24.399Z,93.90
2018-11-29T06:13:53.333Z,94.30
2018-11-29T06:16:22.239Z,93.90
2018-11-29T06:18:51.344Z,94.00
2018-11-29T06:21:20.377Z,94.00
2018-11-29T06:23:49.845Z,94.10
2018-11-29T06:26:18.850Z,94.20
2018-11-29T06:28:47.769Z,94.10
2018-11-29T06:31:16.523Z,94.10
2018-11-29T06:33:45.325Z,94.10
2018-11-29T06:36:14.150Z,94.10
2018-11-29T06:38:43.267Z,93.90
2018-11-29T06:41:12.195Z,93.90
2018-11-29T06:43:40.984Z,93.80
2018-11-29T06:46:11.339Z,93.80
2018-11-29T06:48:40.309Z,93.80
2018-11-29T06:51:09.256Z,93.60
2018-11-29T06:53:43.502Z,93.40
2018-11-29T06:56:13.943Z,93.30
2018-11-29T06:58:42.765Z,93.20
2018-11-29T07:01:11.532Z,93.10
2018-11-29T07:03:40.303Z,92.90
2018-11-29T07:06:09.073Z,92.80
2018-11-29T07:08:37.740Z,92.80
2018-11-29T07:11:06.699Z,92.60
2018-11-29T07:13:35.650Z,92.50
2018-11-29T07:16:04.446Z,92.60
2018-11-29T07:18:33.286Z,92.60
2018-11-29T07:21:13.218Z,92.70
2018-11-29T07:23:42.001Z,92.90
2018-11-29T07:26:11.077Z,93.00
2018-11-29T07:28:40.745Z,93.10
2018-11-29T07:31:09.736Z,93.30
2018-11-29T07:33:39.744Z,93.30
2018-11-29T07:36:09.009Z,93.20
2018-11-29T07:38:37.778Z,93.10
2018-11-29T07:41:06.900Z,93.10
2018-11-29T07:43:37.512Z,93.20
2018-11-29T07:46:06.765Z,93.30
2018-11-29T07:48:35.625Z,93.20
2018-11-29T07:51:05.519Z,93.00
2018-11-29T07:53:34.404Z,93.10
2018-11-29T07:56:03.309Z,93.10
2018-11-29T07:58:32.434Z,93.00
2018-11-29T08:01:01.206Z,93.00
2018-11-29T08:03:31.884Z,93.00
2018-11-29T08:06:19.950Z,93.00
2018-11-29T08:08:49.325Z,92.80
2018-11-29T08:11:18.347Z,92.60
2018-11-29T08:13:55.390Z,92.60
2018-11-29T08:18:59.993Z,92.20
2018-11-29T08:21:39.590Z,92.20
2018-11-29T08:24:11.202Z,92.30
2018-11-29T08:26:41.917Z,92.10
2018-11-29T08:29:15.668Z,92.20
2018-11-29T08:31:47.439Z,92.20
2018-11-29T08:34:31.397Z,92.00
2018-11-29T08:37:01.568Z,91.60
2018-11-29T08:39:50.926Z,91.50
2018-11-29T08:42:41.403Z,91.50
2018-11-29T08:45:31.189Z,91.60
2018-11-29T08:48:12.510Z,91.50
2018-11-29T08:50:42.717Z,91.50
2018-11-29T08:53:12.373Z,91.20
2018-11-29T08:55:41.292Z,91.50
2018-11-29T08:58:10.871Z,91.40
2018-11-29T09:00:39.864Z,91.10
2018-11-29T09:03:08.596Z,91.30
2018-11-29T09:05:37.408Z,91.00
2018-11-29T09:08:06.055Z,91.10
2018-11-29T09:10:34.775Z,90.70
2018-11-29T09:13:03.344Z,90.60
2018-11-29T09:15:32.323Z,90.80
2018-11-29T09:18:01.056Z,90.70
2018-11-29T09:20:29.758Z,90.90
2018-11-29T09:22:58.327Z,91.10
2018-11-29T09:25:26.948Z,91.40
2018-11-29T09:27:55.570Z,91.40
2018-11-29T09:30:24.335Z,91.30
2018-11-29T09:32:53.857Z,91.60
2018-11-29T09:35:22.343Z,91.50
2018-11-29T09:37:50.803Z,91.90
2018-11-29T09:40:19.391Z,91.30
2018-11-29T09:42:47.943Z,91.40
2018-11-29T09:45:24.132Z,91.40
2018-11-29T09:47:56.218Z,91.50
2018-11-29T09:50:25.943Z,91.30
2018-11-29T09:52:54.451Z,91.10
2018-11-29T09:55:22.904Z,91.30
2018-11-29T09:57:51.562Z,91.60
2018-11-29T10:00:27.552Z,91.80
2018-11-29T10:02:58.607Z,92.10
2018-11-29T10:05:27.073Z,92.10
2018-11-29T10:07:55.566Z,92.20
2018-11-29T10:10:23.970Z,92.30
2018-11-29T10:12:52.638Z,92.60
2018-11-29T10:15:21.131Z,92.50
2018-11-29T10:17:49.601Z,92.50
2018-11-29T10:20:18.137Z,92.50
2018-11-29T10:22:46.606Z,92.40
2018-11-29T10:25:15.323Z,92.50
2018-11-29T10:27:45.351Z,92.70
2018-11-29T10:30:21.035Z,92.80
2018-11-29T10:32:49.481Z,92.80
2018-11-29T10:35:18.134Z,92.70
2018-11-29T10:37:46.575Z,92.80
2018-11-29T10:40:15.159Z,92.80
2018-11-29T10:42:43.861Z,92.90
2018-11-29T10:45:13.710Z,92.80
2018-11-29T10:47:43.123Z,93.10
2018-11-29T10:50:12.797Z,93.10
2018-11-29T10:52:41.288Z,93.10
2018-11-29T10:55:27.399Z,93.20
2018-11-29T10:57:55.909Z,93.10
2018-11-29T11:00:32.406Z,93.10
2018-11-29T11:03:09.353Z,93.00
2018-11-29T11:05:37.955Z,93.20
2018-11-29T11:08:09.263Z,92.90
2018-11-29T11:10:38.785Z,92.80
2018-11-29T11:13:07.497Z,92.90
2018-11-29T11:15:36.147Z,93.20
2018-11-29T11:18:04.989Z,92.80
2018-11-29T11:20:33.462Z,92.90
2018-11-29T11:23:03.813Z,93.10
2018-11-29T11:25:32.743Z,93.10
2018-11-29T11:28:01.335Z,93.50
2018-11-29T11:30:30.157Z,93.00
2018-11-29T11:32:58.861Z,92.90
2018-11-29T11:35:29.528Z,93.10
2018-11-29T11:37:58.317Z,93.20
2018-11-29T11:40:27.018Z,93.20
2018-11-29T11:42:55.507Z,93.60
2018-11-29T11:45:24.078Z,93.70
2018-11-29T11:47:52.622Z,93.80
2018-11-29T11:50:22.451Z,94.00
2018-11-29T11:52:51.238Z,94.00
2018-11-29T11:55:19.825Z,94.10
2018-11-29T11:57:48.729Z,94.30
2018-11-29T12:00:26.200Z,94.10
2018-11-29T12:02:56.902Z,94.10
2018-11-29T12:05:27.291Z,94.20
2018-11-29T12:07:57.578Z,94.20
2018-11-29T12:10:26.139Z,93.80
2018-11-29T12:12:54.550Z,94.10
2018-11-29T12:15:26.091Z,94.10
2018-11-29T12:17:54.530Z,94.10
2018-11-29T12:20:23.151Z,94.50
2018-11-29T12:22:51.747Z,94.40
2018-11-29T12:25:27.546Z,94.40
2018-11-29T12:27:56.501Z,94.30
2018-11-29T12:30:28.883Z,94.90
2018-11-29T12:32:59.531Z,94.20
2018-11-29T12:35:28.109Z,94.80
2018-11-29T12:37:56.546Z,94.70
2018-11-29T12:40:25.382Z,94.50
2018-11-29T12:42:53.830Z,94.30
2018-11-29T12:45:22.306Z,94.30
2018-11-29T12:47:50.771Z,94.20
2018-11-29T12:50:24.391Z,93.50
2018-11-29T12:52:52.930Z,93.40
2018-11-29T12:55:22.395Z,93.30
2018-11-29T12:58:04.665Z,93.20
2018-11-29T13:00:20.734Z,93.20
2018-11-29T13:02:50.233Z,93.00
2018-11-29T13:05:18.803Z,93.00
2018-11-29T13:07:47.246Z,92.90
2018-11-29T13:10:16.619Z,93.10
2018-11-29T13:12:45.058Z,93.20
2018-11-29T13:15:14.922Z,93.40
2018-11-29T13:17:43.299Z,93.60
2018-11-29T13:20:13.832Z,93.80
2018-11-29T13:22:42.346Z,93.70
2018-11-29T13:25:14.129Z,93.50
2018-11-29T13:27:42.670Z,93.70
2018-11-29T13:30:12.333Z,93.70
2018-11-29T13:32:40.871Z,93.60
2018-11-29T13:35:15.825Z,93.30
2018-11-29T13:37:48.274Z,93.40
2018-11-29T13:40:20.932Z,93.20
2018-11-29T13:42:51.944Z,92.80
2018-11-29T13:45:20.686Z,92.90
2018-11-29T13:47:49.127Z,92.70
2018-11-29T13:50:18.211Z,92.90
2018-11-29T13:52:46.893Z,92.70
2018-11-29T13:55:16.114Z,92.60
2018-11-29T13:57:46.529Z,92.90
2018-11-29T14:00:16.911Z,92.70
2018-11-29T14:02:47.114Z,92.60
2018-11-29T14:05:14.775Z,92.70
2018-11-29T14:07:43.242Z,92.70
2018-11-29T14:10:22.854Z,92.80
2018-11-29T14:12:52.451Z,92.70
2018-11-29T14:15:23.008Z,92.80
2018-11-29T14:17:51.508Z,93.10
2018-11-29T14:20:19.995Z,92.60
2018-11-29T14:22:48.470Z,92.80
2018-11-29T14:25:17.489Z,92.50
2018-11-29T14:27:48.012Z,92.50
2018-11-29T14:30:21.304Z,92.50
2018-11-29T14:32:49.902Z,92.40
2018-11-29T14:35:18.365Z,92.50
2018-11-29T14:37:46.847Z,92.40
2018-11-29T14:40:17.363Z,92.40
2018-11-29T14:42:45.819Z,92.30
2018-11-29T14:45:15.460Z,92.20
2018-11-29T14:47:43.969Z,91.90
2018-11-29T14:50:18.822Z,91.80
2018-11-29T14:52:47.306Z,91.80
2018-11-29T14:55:15.781Z,91.80
2018-11-29T14:57:44.270Z,91.90
2018-11-29T15:00:13.401Z,91.80
2018-11-29T15:02:42.159Z,91.70
2018-11-29T15:05:30.582Z,91.70
2018-11-29T15:07:59.065Z,91.70
2018-11-29T15:10:27.511Z,91.60
2018-11-29T15:12:55.984Z,91.50
2018-11-29T15:15:24.554Z,91.70
2018-11-29T15:17:53.849Z,91.70
2018-11-29T15:20:30.399Z,91.90
2018-11-29T15:22:58.855Z,91.60
2018-11-29T15:25:27.334Z,91.50
2018-11-29T15:27:55.787Z,91.40
2018-11-29T15:30:24.282Z,91.40
2018-11-29T15:32:52.794Z,91.30
2018-11-29T15:35:21.279Z,91.40
2018-11-29T15:37:49.786Z,91.20
2018-11-29T15:40:18.622Z,91.10
2018-11-29T15:42:47.243Z,91.10
2018-11-29T15:45:23.635Z,90.90
2018-11-29T15:47:52.156Z,91.00
2018-11-29T15:50:20.705Z,91.00
2018-11-29T15:52:49.304Z,91.00
2018-11-29T15:55:19.698Z,91.00
2018-11-29T15:57:49.631Z,91.10
2018-11-29T16:00:21.480Z,91.30
2018-11-29T16:02:50.349Z,91.30
2018-11-29T16:05:18.990Z,91.40
2018-11-29T16:07:47.640Z,91.50
2018-11-29T16:10:18.214Z,91.50
2018-11-29T16:12:46.979Z,91.20
2018-11-29T16:15:16.493Z,91.30
2018-11-29T16:17:45.514Z,91.00
2018-11-29T16:20:27.155Z,91.10
2018-11-29T16:22:56.434Z,91.00
2018-11-29T16:25:24.965Z,90.90
2018-11-29T16:27:53.466Z,90.60
2018-11-29T16:30:25.347Z,90.40
2018-11-29T16:32:54.367Z,90.30
2018-11-29T16:35:22.899Z,90.20
2018-11-29T16:37:52.102Z,90.30
2018-11-29T16:40:20.814Z,89.70
2018-11-29T16:42:49.336Z,89.90
2018-11-29T16:45:17.839Z,89.00
2018-11-29T16:47:46.758Z,87.80
2018-11-29T16:50:17.105Z,88.10
2018-11-29T16:52:47.943Z,88.60
2018-11-29T16:55:16.873Z,87.90
2018-11-29T16:57:55.659Z,88.20
2018-11-29T17:00:24.261Z,88.20
2018-11-29T17:02:58.109Z,87.60
2018-11-29T17:05:28.056Z,87.80
2018-11-29T17:07:57.180Z,87.10
2018-11-29T17:10:25.914Z,87.00
2018-11-29T17:12:56.209Z,85.90
2018-11-29T17:15:29.040Z,86.10
2018-11-29T17:17:57.814Z,86.50
2018-11-29T17:20:32.795Z,86.60
2018-11-29T17:23:07.244Z,86.30
2018-11-29T17:25:53.072Z,86.00
2018-11-29T17:28:28.500Z,86.50
2018-11-29T17:44:58.679Z,87.20
2018-11-29T17:47:27.343Z,87.70
2018-11-29T17:49:56.930Z,87.60
2018-11-29T17:52:27.410Z,87.70
2018-11-29T17:54:56.161Z,87.60
2018-11-29T17:57:38.065Z,87.70
2018-11-29T18:00:15.712Z,88.00
2018-11-29T18:02:50.866Z,88.20
2018-11-29T18:05:23.089Z,88.60
2018-11-29T18:07:56.682Z,89.10
2018-11-29T18:10:32.981Z,88.70
2018-11-29T18:13:07.772Z,88.80
2018-11-29T18:23:29.058Z,88.70
2018-11-29T18:34:04.570Z,88.10
2018-11-29T19:05:29.130Z,87.80
2018-11-29T19:11:12.650Z,85.40
2018-11-29T21:57:10.683Z,85.40
2018-11-29T21:59:39.193Z,87.50
2018-11-29T22:02:07.654Z,87.10
2018-11-29T22:04:36.124Z,87.00
2018-11-29T22:07:04.634Z,86.90
2018-11-29T22:09:33.082Z,86.80
2018-11-29T22:12:01.846Z,86.90
2018-11-29T22:14:31.449Z,86.30
2018-11-29T22:16:59.902Z,86.10
2018-11-29T22:19:28.710Z,85.80
2018-11-29T22:21:57.335Z,85.80
2018-11-29T22:24:29.013Z,86.10
2018-11-29T22:26:57.585Z,85.90
2018-11-29T22:29:26.253Z,86.00
2018-11-29T22:31:54.850Z,86.00
2018-11-29T22:34:23.355Z,85.90
2018-11-29T22:36:52.765Z,85.90
2018-11-29T22:39:21.240Z,85.70
2018-11-29T22:41:50.474Z,85.80
2018-11-29T22:44:19.019Z,85.90
2018-11-29T22:46:47.638Z,85.90
2018-11-29T22:49:16.080Z,86.00
2018-11-29T22:51:45.041Z,86.00
2018-11-29T22:54:13.575Z,86.20
2018-11-29T22:56:42.759Z,86.20
2018-11-29T22:59:11.494Z,85.60
2018-11-29T23:01:40.001Z,85.70
2018-11-29T23:04:08.523Z,86.00
2018-11-29T23:06:37.668Z,85.80
2018-11-29T23:09:09.262Z,86.00
2018-11-29T23:11:38.614Z,85.80
2018-11-29T23:14:07.183Z,86.20
2018-11-29T23:16:35.634Z,85.80
2018-11-29T23:19:04.142Z,85.90
2018-11-29T23:21:32.591Z,86.20
2018-11-29T23:24:01.086Z,86.10
2018-11-29T23:26:29.515Z,85.90
2018-11-29T23:28:58.014Z,86.00
2018-11-29T23:31:26.486Z,85.90
2018-11-29T23:33:55.815Z,85.90
2018-11-29T23:36:24.334Z,86.10
2018-11-29T23:38:52.795Z,85.90
2018-11-29T23:41:21.220Z,85.90
2018-11-29T23:43:50.330Z,85.70
2018-11-29T23:46:19.421Z,85.70
2018-11-29T23:48:47.867Z,85.90
2018-11-29T23:51:16.307Z,85.90
2018-11-29T23:53:44.767Z,85.90
2018-11-29T23:56:13.885Z,85.70
2018-11-29T23:58:42.931Z,85.90
